ベレン の空港の天気 - METARとTAF

ベレン国際空港 ( SBBE / BEL ) - ブラジル パラー州ベレン
飛行場実況気象(Metar)
観測時間04/26 07:00 AMT (04/26 11:00 UTC)
風向・風速東 3m/s
視程10km以上
天気現象
少しの雲 雲底高度 460m
全天の8割程度の雲 雲底高度 3050m
気温27℃
湿度84%
気圧1012hPa
METARSBBE 261100Z 09006KT 9999 FEW015 BKN100 27/24 Q1012
過去の天気等 Google飛行場航空写真 Wunderground天気予報

過去48時間のMETAR

飛行場予報(TAF)
発表時間: 4/26 00:00 AMT (4/26 04:00 UTC)
予報対象時間: 26日2時 AMT ~ 27日2時 AMT
風向・風速東 1m/s
視程10km以上
なし
26日3時 AMT ~ 26日5時 AMT に徐々に
風向・風速東南東 1m/s
視程5,000m
天気現象もや
少しの雲 雲底高度 610m
26日7時 AMT ~ 26日9時 AMT に徐々に
風向・風速東北東 5m/s
視程10km以上
全天の8割程度の雲 雲底高度 760m
26日15時 AMT ~ 26日17時 AMT に徐々に
風向・風速東北東 3m/s
全天の4割程度の雲 雲底高度 760m
少しの塔状積雲 雲底高度 910m
26日23時 AMT ~ 27日1時 AMT に徐々に
風向・風速東 1m/s
TAF SBBE 260400Z 2606/2706 09002KT CAVOK TN24/2607Z TX31/2615Z
BECMG 2607/2609 12002KT 5000 BR FEW020
BECMG 2611/2613 07010KT 9999 BKN025
BECMG 261 5/2617 01010KT BKN030 FEW035TCU
BECMG 2619/2621 07005KT SCT025 FEW030TCU BE CMG 2623/2701 14005KT CAVOK
BECMG 2703/2705 09002KT RMK PDY